Time;durP1;ratioP1;P1;durP2;ratioP2;P2;SDS_P1;SDS_P2;PMS_P1;PMS_P2;Temp;Humidity;BMP_temperature;BMP_pressure;BME280_temperature;BME280_humidity;BME280_pressure;Samples;Min_cycle;Max_cycle;Signal;HPM_P1;HPM_P2
2022/05/21 00:00:15;;;;;;;9.63;3.35;;;;;;;;;;5072392;28;20108;-78
2022/05/21 00:02:41;;;;;;;9.18;3.10;;;;;;;;;;5072831;28;20025;-77
2022/05/21 00:05:08;;;;;;;5.22;2.72;;;;;;;;;;5056842;28;20046;-79
2022/05/21 00:07:34;;;;;;;14.10;3.67;;;;;;;;;;5056002;28;20029;-77
2022/05/21 00:10:00;;;;;;;4.30;2.72;;;;;;;;;;5072590;28;20373;-77
2022/05/21 00:12:26;;;;;;;11.23;3.75;;;;;;;;;;5055715;28;20052;-77
2022/05/21 00:14:52;;;;;;;7.28;3.30;;;;;;;;;;5072676;28;20029;-77
2022/05/21 00:17:19;;;;;;;6.90;3.33;;;;;;;;;;5072868;28;20025;-77
2022/05/21 00:19:45;;;;;;;7.25;3.20;;;;;;;;;;5059690;28;20027;-78
2022/05/21 00:22:11;;;;;;;11.65;3.70;;;;;;;;;;5065938;28;20032;-76
2022/05/21 00:24:37;;;;;;;7.05;4.13;;;;;;;;;;5056860;28;20033;-77
2022/05/21 00:27:03;;;;;;;8.40;3.60;;;;;;;;;;5056770;28;20029;-76
2022/05/21 00:29:28;;;;;;;10.82;3.45;;;;;;;;;;5057159;28;20052;-76
2022/05/21 00:31:55;;;;;;;10.35;3.60;;;;;;;;;;5055436;28;20061;-77
2022/05/21 00:34:21;;;;;;;11.13;3.88;;;;;;;;;;5056436;28;20488;-77
2022/05/21 00:36:47;;;;;;;7.18;4.10;;;;;;;;;;5055526;28;20017;-77
2022/05/21 00:39:12;;;;;;;8.13;3.95;;;;;;;;;;5039330;28;20079;-77
2022/05/21 00:41:41;;;;;;;7.38;3.53;;;;;;;;;;5056418;28;20682;-76
2022/05/21 00:44:08;;;;;;;8.63;3.72;;;;;;;;;;5038953;28;20036;-77
2022/05/21 00:46:39;;;;;;;7.45;4.55;;;;;;;;;;5056960;28;20524;-76
2022/05/21 00:49:25;;;;;;;8.10;3.42;;;;;;;;;;5054826;28;20135;-78
2022/05/21 00:51:58;;;;;;;7.57;3.65;;;;;;;;;;5057067;28;20397;-79
2022/05/21 00:54:30;;;;;;;8.30;4.60;;;;;;;;;;5056836;28;20025;-78
2022/05/21 00:57:06;;;;;;;9.93;4.75;;;;;;;;;;5036703;28;20036;-77
2022/05/21 00:59:47;;;;;;;9.02;4.30;;;;;;;;;;5052091;28;20021;-77
2022/05/21 01:02:20;;;;;;;10.38;4.22;;;;;;;;;;5053498;28;20036;-78
2022/05/21 01:04:47;;;;;;;11.45;4.63;;;;;;;;;;5051852;28;20033;-79
2022/05/21 01:07:15;;;;;;;7.80;4.38;;;;;;;;;;5053276;28;20057;-76
2022/05/21 01:09:46;;;;;;;5.70;3.85;;;;;;;;;;5051832;28;20025;-78
2022/05/21 01:12:11;;;;;;;6.30;4.07;;;;;;;;;;5053131;28;20024;-76
2022/05/21 01:14:37;;;;;;;10.38;3.92;;;;;;;;;;5053808;28;20376;-77
2022/05/21 01:17:03;;;;;;;11.27;4.15;;;;;;;;;;5052888;28;20469;-77
2022/05/21 01:19:29;;;;;;;5.05;3.97;;;;;;;;;;5052797;28;20025;-80
2022/05/21 01:21:55;;;;;;;7.07;4.10;;;;;;;;;;5045991;28;20040;-77
2022/05/21 01:24:21;;;;;;;6.45;4.05;;;;;;;;;;5051827;28;20025;-76
2022/05/21 01:26:47;;;;;;;8.15;4.15;;;;;;;;;;5035448;28;20036;-78
2022/05/21 01:29:22;;;;;;;7.47;4.70;;;;;;;;;;5053257;28;20029;-78
2022/05/21 01:31:53;;;;;;;13.70;4.22;;;;;;;;;;5052994;28;20108;-77
2022/05/21 01:34:19;;;;;;;6.72;4.60;;;;;;;;;;5052712;28;20385;-77
2022/05/21 01:36:46;;;;;;;7.88;4.60;;;;;;;;;;5053088;28;20028;-77
2022/05/21 01:39:12;;;;;;;9.57;6.10;;;;;;;;;;5053075;28;20025;-77
2022/05/21 01:41:45;;;;;;;12.63;4.55;;;;;;;;;;5053975;28;20032;-77
2022/05/21 01:46:54;;;;;;;6.78;4.30;;;;;;;;;;5072749;28;20040;-77
2022/05/21 01:49:20;;;;;;;8.25;3.80;;;;;;;;;;5066560;28;20385;-78
2022/05/21 01:51:45;;;;;;;6.28;4.05;;;;;;;;;;5052620;28;20028;-78
2022/05/21 01:54:11;;;;;;;6.50;4.15;;;;;;;;;;5051883;28;20028;-78
2022/05/21 01:56:36;;;;;;;10.73;4.30;;;;;;;;;;5050981;28;20049;-76
2022/05/21 01:59:02;;;;;;;7.43;4.63;;;;;;;;;;5034365;28;20108;-78
2022/05/21 02:01:28;;;;;;;10.32;3.63;;;;;;;;;;5052391;28;20029;-78
2022/05/21 02:03:53;;;;;;;8.25;4.32;;;;;;;;;;5050854;28;20032;-79
2022/05/21 02:06:19;;;;;;;8.85;3.90;;;;;;;;;;5067270;28;20029;-76
2022/05/21 02:08:44;;;;;;;9.15;3.33;;;;;;;;;;5051414;28;20025;-77
2022/05/21 02:11:10;;;;;;;5.18;3.08;;;;;;;;;;5051832;28;20035;-76
2022/05/21 02:13:36;;;;;;;6.63;3.05;;;;;;;;;;5066832;28;20051;-78
2022/05/21 02:16:02;;;;;;;2.35;2.15;;;;;;;;;;5051704;28;20438;-76
2022/05/21 02:18:28;;;;;;;6.53;2.35;;;;;;;;;;5067121;28;20410;-76
2022/05/21 02:20:54;;;;;;;6.90;1.58;;;;;;;;;;5051935;28;20032;-78
2022/05/21 02:23:21;;;;;;;3.08;2.00;;;;;;;;;;5052349;28;20079;-78
2022/05/21 02:25:47;;;;;;;2.40;1.98;;;;;;;;;;5052182;28;20619;-77
2022/05/21 02:28:13;;;;;;;3.70;2.13;;;;;;;;;;5051847;28;20024;-76
2022/05/21 02:30:41;;;;;;;7.85;2.42;;;;;;;;;;5051748;28;20035;-78
2022/05/21 02:33:07;;;;;;;4.53;1.92;;;;;;;;;;5051996;28;20029;-77
2022/05/21 02:35:32;;;;;;;3.50;2.22;;;;;;;;;;5051232;28;20108;-75
2022/05/21 02:40:42;;;;;;;1.85;1.73;;;;;;;;;;5051240;28;20507;-77
2022/05/21 02:43:07;;;;;;;7.03;1.73;;;;;;;;;;5066092;28;20048;-76
2022/05/21 02:45:33;;;;;;;3.28;1.63;;;;;;;;;;5051550;28;20024;-77
2022/05/21 02:47:59;;;;;;;3.45;1.60;;;;;;;;;;5051814;28;20528;-77
2022/05/21 02:50:30;;;;;;;1.75;1.52;;;;;;;;;;5049908;28;20524;-76
2022/05/21 02:52:56;;;;;;;3.83;1.58;;;;;;;;;;5051140;28;20161;-76
2022/05/21 02:55:22;;;;;;;2.40;1.58;;;;;;;;;;5050791;28;20033;-78
2022/05/21 02:57:47;;;;;;;1.80;1.65;;;;;;;;;;5051088;28;20023;-76
2022/05/21 03:00:25;;;;;;;6.20;1.45;;;;;;;;;;5049595;28;20032;-78
2022/05/21 03:02:51;;;;;;;1.85;1.70;;;;;;;;;;5050500;28;20230;-78
2022/05/21 03:05:18;;;;;;;1.77;1.58;;;;;;;;;;5051347;28;20147;-77
2022/05/21 03:07:47;;;;;;;3.10;2.15;;;;;;;;;;5066682;28;20036;-77
2022/05/21 03:10:23;;;;;;;2.47;1.40;;;;;;;;;;5049952;28;20483;-78
2022/05/21 03:12:50;;;;;;;4.38;1.63;;;;;;;;;;5066640;28;20036;-79
2022/05/21 03:15:16;;;;;;;1.55;1.38;;;;;;;;;;5049951;28;20029;-78
2022/05/21 03:17:43;;;;;;;1.40;1.30;;;;;;;;;;5049504;28;20110;-75
2022/05/21 03:20:13;;;;;;;2.20;1.65;;;;;;;;;;5048040;28;20024;-77
2022/05/21 03:22:39;;;;;;;4.10;1.85;;;;;;;;;;5033363;28;20141;-78
2022/05/21 03:25:05;;;;;;;3.55;1.70;;;;;;;;;;5050381;28;20111;-78
2022/05/21 03:27:30;;;;;;;2.15;1.42;;;;;;;;;;5050785;28;20033;-77
2022/05/21 03:29:56;;;;;;;2.88;1.50;;;;;;;;;;5033201;28;20100;-78
2022/05/21 03:32:21;;;;;;;2.40;1.10;;;;;;;;;;5049336;28;20056;-78
2022/05/21 03:34:47;;;;;;;1.80;1.70;;;;;;;;;;5049722;28;20108;-79
2022/05/21 03:37:12;;;;;;;1.30;1.13;;;;;;;;;;5051819;28;20079;-78
2022/05/21 03:39:38;;;;;;;1.27;1.23;;;;;;;;;;5049819;28;20025;-78
2022/05/21 03:42:04;;;;;;;1.50;1.40;;;;;;;;;;5056824;28;20140;-75
2022/05/21 03:44:30;;;;;;;1.42;1.33;;;;;;;;;;5071100;28;20064;-77
2022/05/21 03:46:56;;;;;;;2.03;1.20;;;;;;;;;;5069257;28;20462;-77
2022/05/21 03:49:23;;;;;;;2.05;1.30;;;;;;;;;;5070399;28;20043;-78
2022/05/21 03:51:48;;;;;;;1.13;1.13;;;;;;;;;;5070960;28;20059;-76
2022/05/21 03:54:14;;;;;;;2.00;1.65;;;;;;;;;;5070980;28;20066;-78
2022/05/21 03:56:39;;;;;;;1.45;1.23;;;;;;;;;;5071102;28;20020;-78
2022/05/21 03:59:05;;;;;;;1.70;1.50;;;;;;;;;;5053134;28;20051;-77
2022/05/21 04:01:31;;;;;;;2.17;1.50;;;;;;;;;;5053532;28;20213;-77
2022/05/21 04:03:56;;;;;;;1.38;1.20;;;;;;;;;;5050121;28;20039;-77
2022/05/21 04:06:22;;;;;;;1.67;1.20;;;;;;;;;;5052063;28;20295;-77
2022/05/21 04:08:49;;;;;;;1.67;1.42;;;;;;;;;;5050637;28;20025;-77
2022/05/21 04:11:15;;;;;;;2.00;1.15;;;;;;;;;;5050454;28;20052;-76
2022/05/21 04:13:41;;;;;;;2.42;1.20;;;;;;;;;;5050633;28;20025;-77
2022/05/21 04:16:07;;;;;;;3.35;1.10;;;;;;;;;;5049920;28;20427;-77
2022/05/21 04:18:32;;;;;;;2.10;1.50;;;;;;;;;;5065651;28;20107;-77
2022/05/21 04:20:58;;;;;;;2.30;1.25;;;;;;;;;;5050483;28;20024;-78
2022/05/21 04:23:23;;;;;;;1.48;1.27;;;;;;;;;;5050936;28;20036;-78
2022/05/21 04:25:49;;;;;;;2.05;1.42;;;;;;;;;;5050922;28;20033;-78
2022/05/21 04:28:15;;;;;;;1.40;1.30;;;;;;;;;;5032591;28;20061;-80
2022/05/21 04:30:41;;;;;;;2.65;1.50;;;;;;;;;;5033549;28;20124;-77
2022/05/21 04:33:07;;;;;;;1.70;1.60;;;;;;;;;;5054268;28;20552;-77
2022/05/21 04:38:18;;;;;;;1.75;1.65;;;;;;;;;;5074797;28;20027;-78
2022/05/21 04:40:44;;;;;;;2.55;1.83;;;;;;;;;;5055913;28;20016;-78
2022/05/21 04:43:10;;;;;;;2.55;2.03;;;;;;;;;;5055561;28;20048;-78
2022/05/21 04:45:36;;;;;;;2.47;2.17;;;;;;;;;;5073421;28;20050;-79
2022/05/21 04:48:03;;;;;;;2.33;2.00;;;;;;;;;;5072205;28;20048;-77
2022/05/21 04:50:28;;;;;;;10.60;2.45;;;;;;;;;;5055373;28;20028;-78
2022/05/21 04:52:54;;;;;;;2.67;2.20;;;;;;;;;;5055037;28;20093;-78
2022/05/21 04:55:19;;;;;;;4.63;2.38;;;;;;;;;;5073249;28;20025;-74
2022/05/21 04:57:45;;;;;;;2.75;2.22;;;;;;;;;;5073716;28;20024;-77
2022/05/21 05:00:11;;;;;;;18.25;3.30;;;;;;;;;;5072023;28;20495;-78
2022/05/21 05:02:38;;;;;;;3.22;2.60;;;;;;;;;;5072000;28;20043;-79
2022/05/21 05:05:05;;;;;;;2.85;2.20;;;;;;;;;;5054287;28;20023;-77
2022/05/21 05:07:31;;;;;;;3.03;2.35;;;;;;;;;;5073420;28;20052;-77
2022/05/21 05:09:57;;;;;;;3.13;2.72;;;;;;;;;;5055875;28;20487;-78
2022/05/21 05:12:22;;;;;;;5.93;2.20;;;;;;;;;;5073399;28;20466;-80
2022/05/21 05:14:48;;;;;;;3.42;2.10;;;;;;;;;;5055328;28;20024;-76
2022/05/21 05:17:14;;;;;;;3.10;2.47;;;;;;;;;;5071685;28;20108;-75
2022/05/21 05:19:40;;;;;;;5.15;2.40;;;;;;;;;;5068473;28;20115;-78
2022/05/21 05:22:09;;;;;;;4.07;2.40;;;;;;;;;;5053132;28;20033;-77
2022/05/21 05:24:38;;;;;;;2.97;2.13;;;;;;;;;;5051612;28;20029;-79
2022/05/21 05:27:04;;;;;;;1.98;1.70;;;;;;;;;;5051661;28;20541;-78
2022/05/21 05:29:32;;;;;;;2.05;1.85;;;;;;;;;;5068118;28;20108;-82
2022/05/21 05:31:57;;;;;;;2.28;1.98;;;;;;;;;;5052882;28;20430;-78
2022/05/21 05:34:23;;;;;;;3.78;1.80;;;;;;;;;;5052518;28;20049;-78
2022/05/21 05:36:49;;;;;;;2.22;1.52;;;;;;;;;;5053151;28;20025;-77
2022/05/21 05:39:16;;;;;;;2.03;1.83;;;;;;;;;;5052993;28;20032;-78
2022/05/21 05:41:42;;;;;;;4.25;1.77;;;;;;;;;;5054564;28;20058;-76
2022/05/21 05:44:08;;;;;;;2.85;1.48;;;;;;;;;;5055244;28;20025;-78
2022/05/21 05:46:33;;;;;;;2.40;2.08;;;;;;;;;;5072151;28;20056;-78
2022/05/21 05:48:59;;;;;;;3.80;1.70;;;;;;;;;;5051075;28;20112;-77
2022/05/21 05:51:27;;;;;;;3.30;1.80;;;;;;;;;;5052795;28;20370;-78
2022/05/21 05:53:53;;;;;;;2.42;2.22;;;;;;;;;;5067614;28;20492;-79
2022/05/21 05:56:19;;;;;;;5.65;1.50;;;;;;;;;;5051156;28;20025;-76
2022/05/21 06:01:30;;;;;;;2.05;1.83;;;;;;;;;;5052702;28;20035;-77
2022/05/21 06:03:55;;;;;;;5.72;1.70;;;;;;;;;;5067364;28;20099;-77
2022/05/21 06:06:21;;;;;;;3.00;2.15;;;;;;;;;;5067648;28;20468;-79
2022/05/21 06:08:47;;;;;;;6.18;2.20;;;;;;;;;;5052095;28;20021;-77
2022/05/21 06:11:13;;;;;;;2.03;1.70;;;;;;;;;;5051478;28;20036;-78
2022/05/21 06:13:39;;;;;;;3.25;2.13;;;;;;;;;;5067285;28;20504;-79
2022/05/21 06:16:05;;;;;;;2.15;1.95;;;;;;;;;;5068027;28;20029;-77
2022/05/21 06:18:31;;;;;;;2.88;1.98;;;;;;;;;;5051998;28;20035;-78
2022/05/21 06:21:05;;;;;;;2.45;2.00;;;;;;;;;;5052208;28;20271;-76
2022/05/21 06:23:32;;;;;;;2.05;1.70;;;;;;;;;;5052137;28;20025;-77
2022/05/21 06:25:59;;;;;;;1.70;1.60;;;;;;;;;;5051769;28;20025;-78
2022/05/21 06:28:25;;;;;;;2.08;1.55;;;;;;;;;;5051878;28;20040;-79
2022/05/21 06:30:51;;;;;;;1.65;1.55;;;;;;;;;;5033520;28;20040;-78
2022/05/21 06:33:24;;;;;;;4.90;1.50;;;;;;;;;;5033764;28;20032;-79
2022/05/21 06:36:10;;;;;;;3.50;1.70;;;;;;;;;;5051535;28;20255;-78
2022/05/21 06:38:38;;;;;;;1.92;1.15;;;;;;;;;;5054305;28;20030;-77
2022/05/21 06:41:04;;;;;;;1.73;1.63;;;;;;;;;;5053653;28;20074;-78
2022/05/21 06:43:29;;;;;;;3.17;1.48;;;;;;;;;;5071817;28;20136;-77
2022/05/21 06:45:55;;;;;;;2.40;1.48;;;;;;;;;;5071442;28;20032;-78
2022/05/21 06:48:21;;;;;;;6.63;1.50;;;;;;;;;;5071635;28;20488;-78
2022/05/21 06:50:47;;;;;;;1.90;1.23;;;;;;;;;;5070542;28;20020;-78
2022/05/21 06:53:14;;;;;;;3.85;1.90;;;;;;;;;;5053826;28;20035;-81
2022/05/21 06:55:41;;;;;;;4.90;1.50;;;;;;;;;;5053526;28;20135;-77
2022/05/21 06:58:07;;;;;;;5.20;1.58;;;;;;;;;;5053750;28;20115;-77
2022/05/21 07:00:33;;;;;;;3.28;1.38;;;;;;;;;;5053564;28;20676;-76
2022/05/21 07:02:59;;;;;;;3.22;1.30;;;;;;;;;;5071146;28;20024;-77
2022/05/21 07:08:22;;;;;;;2.38;1.50;;;;;;;;;;5051140;28;20507;-78
2022/05/21 07:10:48;;;;;;;2.83;1.40;;;;;;;;;;5050566;28;20056;-77
2022/05/21 07:13:15;;;;;;;1.52;1.35;;;;;;;;;;5050991;28;20017;-79
2022/05/21 07:15:42;;;;;;;1.23;1.13;;;;;;;;;;5049318;28;20110;-78
2022/05/21 07:18:07;;;;;;;2.75;1.40;;;;;;;;;;5049642;28;20033;-78
2022/05/21 07:20:33;;;;;;;3.17;1.60;;;;;;;;;;5050481;28;20393;-78
2022/05/21 07:23:00;;;;;;;1.83;1.40;;;;;;;;;;5033107;28;20048;-77
2022/05/21 07:25:29;;;;;;;3.05;1.50;;;;;;;;;;5049702;28;20090;-77
2022/05/21 07:27:54;;;;;;;1.50;1.40;;;;;;;;;;5050956;28;20468;-79
2022/05/21 07:30:20;;;;;;;4.32;1.60;;;;;;;;;;5050894;28;20112;-78
2022/05/21 07:32:48;;;;;;;3.70;1.70;;;;;;;;;;5051154;28;20044;-78
2022/05/21 07:35:15;;;;;;;5.72;1.83;;;;;;;;;;5069362;28;20112;-78
2022/05/21 07:37:41;;;;;;;1.75;1.65;;;;;;;;;;5052855;28;20020;-78
2022/05/21 07:40:12;;;;;;;1.88;1.67;;;;;;;;;;5053298;28;20555;-77
2022/05/21 07:42:37;;;;;;;3.17;1.73;;;;;;;;;;5050208;28;20080;-78
2022/05/21 07:45:05;;;;;;;2.15;1.40;;;;;;;;;;5050920;28;20480;-77
2022/05/21 07:47:31;;;;;;;6.72;1.55;;;;;;;;;;5050015;28;20041;-78
2022/05/21 07:49:57;;;;;;;3.92;1.45;;;;;;;;;;5051356;28;20094;-77
2022/05/21 07:52:24;;;;;;;6.68;1.70;;;;;;;;;;5066826;28;20540;-77
2022/05/21 07:54:49;;;;;;;1.27;1.15;;;;;;;;;;5049918;28;20077;-77
2022/05/21 07:57:16;;;;;;;2.80;1.50;;;;;;;;;;5049952;28;20021;-77
2022/05/21 07:59:41;;;;;;;1.45;1.35;;;;;;;;;;5051167;28;20580;-79
2022/05/21 08:02:12;;;;;;;15.10;2.88;;;;;;;;;;5050995;28;20055;-79
2022/05/21 08:04:38;;;;;;;2.47;1.60;;;;;;;;;;5049331;28;20174;-79
2022/05/21 08:07:03;;;;;;;4.60;1.65;;;;;;;;;;5054526;28;20049;-80
2022/05/21 08:09:29;;;;;;;3.30;1.52;;;;;;;;;;5054289;28;20101;-80
2022/05/21 08:11:54;;;;;;;2.47;1.83;;;;;;;;;;5055619;28;20082;-79
2022/05/21 08:14:20;;;;;;;2.75;1.95;;;;;;;;;;5056074;28;20112;-78
2022/05/21 08:16:46;;;;;;;2.38;2.03;;;;;;;;;;5055071;28;20032;-77
2022/05/21 08:19:12;;;;;;;2.88;2.00;;;;;;;;;;5053133;28;20476;-76
2022/05/21 08:21:39;;;;;;;2.92;1.42;;;;;;;;;;5053919;28;20033;-78
2022/05/21 08:26:59;;;;;;;2.25;1.30;;;;;;;;;;5054739;28;20036;-77
2022/05/21 08:29:36;;;;;;;1.27;1.15;;;;;;;;;;5054772;28;20029;-78
2022/05/21 08:32:03;;;;;;;1.58;1.35;;;;;;;;;;5054693;28;20033;-76
2022/05/21 08:34:29;;;;;;;5.65;1.35;;;;;;;;;;5052374;28;20088;-79
2022/05/21 08:36:55;;;;;;;2.60;1.48;;;;;;;;;;5053945;28;20094;-77
2022/05/21 08:39:21;;;;;;;2.28;1.60;;;;;;;;;;5052854;28;20024;-78
2022/05/21 08:41:51;;;;;;;5.15;1.40;;;;;;;;;;5035207;28;20049;-77
2022/05/21 08:44:43;;;;;;;6.65;1.33;;;;;;;;;;5070148;28;20503;-78
2022/05/21 08:47:30;;;;;;;2.75;1.25;;;;;;;;;;5054072;28;20028;-78
2022/05/21 08:49:56;;;;;;;1.95;1.48;;;;;;;;;;5054391;28;20082;-78
2022/05/21 08:52:31;;;;;;;3.10;2.00;;;;;;;;;;5053255;28;20428;-79
2022/05/21 08:54:59;;;;;;;1.50;1.40;;;;;;;;;;5052720;28;20463;-78
2022/05/21 08:57:32;;;;;;;1.67;1.45;;;;;;;;;;5054388;28;20028;-81
2022/05/21 09:00:05;;;;;;;3.85;1.73;;;;;;;;;;5053764;28;20460;-78
2022/05/21 09:02:33;;;;;;;1.40;1.17;;;;;;;;;;5051782;28;20060;-81
2022/05/21 09:05:01;;;;;;;1.63;1.42;;;;;;;;;;5053758;28;20031;-78
2022/05/21 09:07:38;;;;;;;1.65;1.40;;;;;;;;;;5053827;28;20032;-79
2022/05/21 09:10:30;;;;;;;3.67;2.22;;;;;;;;;;5053594;28;20059;-78
2022/05/21 09:13:28;;;;;;;4.05;1.65;;;;;;;;;;5051832;28;20150;-79
2022/05/21 09:18:49;;;;;;;3.55;1.40;;;;;;;;;;5053416;28;20506;-77
2022/05/21 09:21:24;;;;;;;1.98;1.80;;;;;;;;;;5071594;28;20039;-77
2022/05/21 09:23:58;;;;;;;3.47;1.33;;;;;;;;;;5037827;28;20035;-78
2022/05/21 09:26:43;;;;;;;1.20;1.10;;;;;;;;;;5038177;28;20385;-79
2022/05/21 09:29:35;;;;;;;3.75;1.30;;;;;;;;;;5055060;28;20024;-75
2022/05/21 09:32:22;;;;;;;1.75;0.93;;;;;;;;;;5069819;28;20369;-76
2022/05/21 09:35:29;;;;;;;1.02;0.93;;;;;;;;;;5068031;28;20039;-78
2022/05/21 09:37:58;;;;;;;1.83;0.93;;;;;;;;;;5032380;28;20037;-80
2022/05/21 09:40:23;;;;;;;2.78;0.93;;;;;;;;;;5053799;28;20365;-78
2022/05/21 09:45:37;;;;;;;3.03;1.45;;;;;;;;;;5054676;28;20512;-79
2022/05/21 09:48:05;;;;;;;3.90;1.25;;;;;;;;;;5053567;28;20027;-78
2022/05/21 09:50:50;;;;;;;4.20;1.30;;;;;;;;;;5053525;28;20489;-82
2022/05/21 09:53:33;;;;;;;2.67;1.13;;;;;;;;;;5054282;28;20424;-79
2022/05/21 09:56:23;;;;;;;2.55;1.10;;;;;;;;;;5051827;28;20037;-79
2022/05/21 09:59:10;;;;;;;3.35;1.08;;;;;;;;;;5053471;28;20541;-81
2022/05/21 10:01:42;;;;;;;0.85;0.85;;;;;;;;;;5053995;28;20052;-79
2022/05/21 10:04:13;;;;;;;1.67;1.30;;;;;;;;;;5068574;28;20036;-79
2022/05/21 10:06:44;;;;;;;2.67;1.23;;;;;;;;;;5051858;28;20494;-80
2022/05/21 10:12:22;;;;;;;2.67;1.00;;;;;;;;;;5054027;28;20136;-79
2022/05/21 10:15:04;;;;;;;1.63;1.20;;;;;;;;;;5052600;28;20025;-78
2022/05/21 10:18:01;;;;;;;2.33;1.13;;;;;;;;;;5051745;28;20131;-79
2022/05/21 10:20:34;;;;;;;2.58;1.08;;;;;;;;;;5052753;28;20017;-82
2022/05/21 10:23:10;;;;;;;2.10;1.27;;;;;;;;;;5036537;28;20041;-79
2022/05/21 10:25:54;;;;;;;4.38;1.08;;;;;;;;;;5052749;28;20389;-81
2022/05/21 10:28:57;;;;;;;1.83;0.80;;;;;;;;;;5051318;28;20021;-80
2022/05/21 10:31:41;;;;;;;1.13;1.00;;;;;;;;;;5052660;28;20404;-81
2022/05/21 10:34:22;;;;;;;1.27;0.80;;;;;;;;;;5050740;28;20033;-79
2022/05/21 10:36:47;;;;;;;5.00;1.20;;;;;;;;;;5052263;28;20048;-78
2022/05/21 10:39:20;;;;;;;2.88;2.13;;;;;;;;;;5051411;28;20050;-78
2022/05/21 10:42:17;;;;;;;1.48;0.85;;;;;;;;;;5051408;28;20189;-79
2022/05/21 10:44:49;;;;;;;4.30;1.98;;;;;;;;;;5067938;28;20064;-80
2022/05/21 10:47:29;;;;;;;2.25;1.00;;;;;;;;;;5051574;28;20049;-82
2022/05/21 10:50:16;;;;;;;0.95;0.95;;;;;;;;;;5051065;28;20134;-80
2022/05/21 10:53:00;;;;;;;0.95;0.80;;;;;;;;;;5051731;28;20032;-80
2022/05/21 10:55:48;;;;;;;3.10;1.10;;;;;;;;;;5051395;28;20031;-80
2022/05/21 10:58:34;;;;;;;2.03;0.93;;;;;;;;;;5052891;28;20029;-79
2022/05/21 11:01:13;;;;;;;1.10;0.85;;;;;;;;;;5052434;28;20032;-81
2022/05/21 11:04:03;;;;;;;3.17;1.23;;;;;;;;;;5050421;28;20043;-79
2022/05/21 11:07:04;;;;;;;2.70;2.50;;;;;;;;;;5050523;28;20043;-80
2022/05/21 11:09:48;;;;;;;3.38;0.95;;;;;;;;;;5043756;28;20041;-80
2022/05/21 11:12:48;;;;;;;2.72;0.95;;;;;;;;;;5050635;28;20021;-81
2022/05/21 11:15:35;;;;;;;1.05;0.90;;;;;;;;;;5051682;28;20392;-80
2022/05/21 11:18:31;;;;;;;1.98;0.75;;;;;;;;;;5051489;28;20029;-81
2022/05/21 11:20:56;;;;;;;3.17;1.10;;;;;;;;;;5049435;28;20060;-79
2022/05/21 11:23:45;;;;;;;2.30;1.00;;;;;;;;;;5051603;28;20033;-82
2022/05/21 11:26:34;;;;;;;2.45;1.05;;;;;;;;;;5052150;28;20326;-80
2022/05/21 11:29:29;;;;;;;2.85;1.10;;;;;;;;;;5028175;28;20087;-79
2022/05/21 11:37:57;;;;;;;6.38;1.17;;;;;;;;;;5051958;28;20083;-80
2022/05/21 11:40:52;;;;;;;0.65;0.65;;;;;;;;;;5051081;28;20043;-81
2022/05/21 11:43:19;;;;;;;3.63;0.75;;;;;;;;;;5067326;28;20133;-81
2022/05/21 11:46:07;;;;;;;1.25;1.15;;;;;;;;;;5067287;28;20493;-80
2022/05/21 11:48:32;;;;;;;0.70;0.68;;;;;;;;;;5050120;28;20036;-80
2022/05/21 11:51:16;;;;;;;0.75;0.60;;;;;;;;;;5051114;28;20025;-80
2022/05/21 11:53:44;;;;;;;3.15;0.90;;;;;;;;;;5051654;28;20074;-80
2022/05/21 11:56:13;;;;;;;3.78;0.73;;;;;;;;;;5049764;28;20025;-81
2022/05/21 11:59:00;;;;;;;2.55;0.70;;;;;;;;;;5052503;28;20481;-80
2022/05/21 12:01:41;;;;;;;0.77;0.70;;;;;;;;;;5049854;28;20033;-78
2022/05/21 12:04:28;;;;;;;1.55;1.00;;;;;;;;;;5049847;28;20032;-80
2022/05/21 12:06:54;;;;;;;2.03;0.80;;;;;;;;;;5042397;28;20511;-80
2022/05/21 12:09:27;;;;;;;0.60;0.50;;;;;;;;;;5051711;28;20028;-79
2022/05/21 12:12:16;;;;;;;3.10;1.05;;;;;;;;;;5052133;28;20032;-80
2022/05/21 12:15:10;;;;;;;5.88;0.80;;;;;;;;;;5051713;28;20454;-80
2022/05/21 12:17:53;;;;;;;1.67;0.80;;;;;;;;;;5050004;28;20033;-80
2022/05/21 12:20:46;;;;;;;1.52;0.77;;;;;;;;;;5049911;28;20370;-79
2022/05/21 12:23:14;;;;;;;1.05;0.80;;;;;;;;;;5045684;28;20037;-79
2022/05/21 12:25:43;;;;;;;1.02;0.77;;;;;;;;;;5051147;28;20056;-77
2022/05/21 12:28:10;;;;;;;1.55;0.73;;;;;;;;;;5032810;28;20025;-79
2022/05/21 12:30:36;;;;;;;2.22;0.82;;;;;;;;;;5050887;28;20166;-80
2022/05/21 12:33:02;;;;;;;3.67;0.90;;;;;;;;;;5048943;28;20063;-81
2022/05/21 12:35:38;;;;;;;3.33;0.80;;;;;;;;;;5050058;28;20065;-80
2022/05/21 12:38:24;;;;;;;2.38;0.90;;;;;;;;;;5051048;28;20538;-80
2022/05/21 12:41:05;;;;;;;1.45;0.77;;;;;;;;;;5049608;28;20116;-79
2022/05/21 12:43:45;;;;;;;2.35;0.80;;;;;;;;;;5051338;28;20079;-81
2022/05/21 12:46:30;;;;;;;3.15;0.85;;;;;;;;;;5049831;28;20065;-81
2022/05/21 12:48:58;;;;;;;0.85;0.75;;;;;;;;;;5050940;28;20428;-80
2022/05/21 12:51:36;;;;;;;1.50;1.00;;;;;;;;;;5052614;28;20028;-81
2022/05/21 12:54:04;;;;;;;4.22;0.95;;;;;;;;;;5055385;28;20352;-80
2022/05/21 12:56:33;;;;;;;3.45;0.63;;;;;;;;;;5071304;28;20013;-80
2022/05/21 12:59:07;;;;;;;2.30;1.00;;;;;;;;;;5053945;28;20039;-79
2022/05/21 13:01:35;;;;;;;2.67;0.90;;;;;;;;;;5053764;28;20020;-78
2022/05/21 13:04:01;;;;;;;3.72;0.70;;;;;;;;;;5053490;28;20427;-80
2022/05/21 13:06:40;;;;;;;3.05;0.90;;;;;;;;;;5054970;28;20380;-78
2022/05/21 13:09:05;;;;;;;1.13;0.82;;;;;;;;;;5053451;28;20484;-79
2022/05/21 13:11:39;;;;;;;0.90;0.80;;;;;;;;;;5053470;28;20036;-79
2022/05/21 13:14:16;;;;;;;0.68;0.65;;;;;;;;;;5053480;28;20052;-79
2022/05/21 13:16:52;;;;;;;1.02;0.80;;;;;;;;;;5053264;28;20072;-81
2022/05/21 13:20:00;;;;;;;1.40;0.70;;;;;;;;;;5054220;28;20032;-80
2022/05/21 13:23:09;;;;;;;2.22;0.68;;;;;;;;;;5004388;28;20036;-80
2022/05/21 13:25:38;;;;;;;4.68;0.60;;;;;;;;;;5053930;28;20033;-80
2022/05/21 13:28:15;;;;;;;2.35;0.55;;;;;;;;;;5036619;28;20105;-80
2022/05/21 13:30:46;;;;;;;3.70;0.73;;;;;;;;;;5057103;28;20045;-80
2022/05/21 13:33:15;;;;;;;1.85;0.43;;;;;;;;;;5036280;28;20025;-79
2022/05/21 13:35:44;;;;;;;0.93;0.52;;;;;;;;;;5052030;28;20024;-78
2022/05/21 13:38:13;;;;;;;0.80;0.63;;;;;;;;;;5053555;28;20341;-81
2022/05/21 13:40:50;;;;;;;2.67;0.82;;;;;;;;;;5053413;28;20021;-82
2022/05/21 13:43:16;;;;;;;2.90;0.73;;;;;;;;;;5069081;28;20056;-80
2022/05/21 13:45:57;;;;;;;2.95;0.88;;;;;;;;;;5053938;28;20033;-81
2022/05/21 13:48:28;;;;;;;;;;;;;;;;;;5052913;28;20075;-79
2022/05/21 13:50:56;;;;;;;1.17;0.52;;;;;;;;;;5069638;28;20426;-78
2022/05/21 13:53:30;;;;;;;6.25;0.63;;;;;;;;;;5053501;28;20029;-80
2022/05/21 13:56:06;;;;;;;1.17;0.70;;;;;;;;;;5053972;28;20025;-81
2022/05/21 13:58:38;;;;;;;2.85;0.80;;;;;;;;;;5069398;28;20495;-79
2022/05/21 14:01:22;;;;;;;2.60;0.70;;;;;;;;;;5053962;28;20029;-81
2022/05/21 14:03:50;;;;;;;1.33;0.60;;;;;;;;;;5053696;28;20021;-81
2022/05/21 14:06:26;;;;;;;3.40;0.70;;;;;;;;;;5053948;28;20039;-80
2022/05/21 14:09:01;;;;;;;2.28;0.50;;;;;;;;;;5054604;28;20492;-79
2022/05/21 14:11:29;;;;;;;2.33;0.63;;;;;;;;;;5054367;28;20472;-80
2022/05/21 14:13:57;;;;;;;1.35;0.68;;;;;;;;;;5054483;28;20108;-79
2022/05/21 14:16:37;;;;;;;1.92;0.70;;;;;;;;;;5052751;28;20056;-80
2022/05/21 14:19:18;;;;;;;0.80;0.77;;;;;;;;;;5036367;28;20025;-78
2022/05/21 14:22:11;;;;;;;1.27;0.70;;;;;;;;;;5054132;28;20024;-80
2022/05/21 14:24:43;;;;;;;2.90;0.75;;;;;;;;;;5053483;28;20388;-78
2022/05/21 14:27:14;;;;;;;0.75;0.63;;;;;;;;;;5053028;28;20059;-80
2022/05/21 14:29:53;;;;;;;1.23;0.60;;;;;;;;;;5053926;28;20492;-81
2022/05/21 14:32:39;;;;;;;1.35;1.00;;;;;;;;;;5051893;28;20055;-81
2022/05/21 14:35:25;;;;;;;0.50;0.50;;;;;;;;;;5054474;28;20029;-80
2022/05/21 14:37:58;;;;;;;4.53;0.65;;;;;;;;;;5052194;28;20337;-78
2022/05/21 14:40:29;;;;;;;0.70;0.70;;;;;;;;;;5051337;28;20110;-78
2022/05/21 14:43:09;;;;;;;0.93;0.85;;;;;;;;;;5052575;28;20114;-77
2022/05/21 14:45:35;;;;;;;6.30;0.77;;;;;;;;;;5052729;28;20029;-79
2022/05/21 14:48:03;;;;;;;1.25;0.73;;;;;;;;;;5053157;28;20079;-80
2022/05/21 14:53:45;;;;;;;4.05;0.80;;;;;;;;;;5053846;28;20159;-79
2022/05/21 14:56:34;;;;;;;2.45;0.70;;;;;;;;;;5053409;28;20528;-81
2022/05/21 14:59:05;;;;;;;1.52;0.60;;;;;;;;;;5053231;28;20033;-79
2022/05/21 15:01:34;;;;;;;1.77;0.77;;;;;;;;;;5051871;28;20035;-79
2022/05/21 15:04:00;;;;;;;1.25;0.60;;;;;;;;;;5053261;28;20060;-78
2022/05/21 15:06:38;;;;;;;3.10;0.70;;;;;;;;;;5052671;28;20481;-79
2022/05/21 15:09:05;;;;;;;2.38;0.50;;;;;;;;;;5053524;28;20016;-80
2022/05/21 15:11:35;;;;;;;1.50;0.75;;;;;;;;;;5051672;28;20086;-80
2022/05/21 15:14:03;;;;;;;2.08;0.65;;;;;;;;;;5052751;28;20387;-80
2022/05/21 15:16:31;;;;;;;2.17;1.20;;;;;;;;;;5052498;28;20028;-78
2022/05/21 15:18:59;;;;;;;2.42;0.70;;;;;;;;;;5035392;28;20106;-80
2022/05/21 15:21:27;;;;;;;3.50;0.70;;;;;;;;;;5049074;28;20035;-80
2022/05/21 15:23:55;;;;;;;1.25;0.57;;;;;;;;;;5050404;28;20063;-78
2022/05/21 15:26:25;;;;;;;1.40;0.50;;;;;;;;;;5052491;28;20021;-79
2022/05/21 15:28:52;;;;;;;1.35;0.95;;;;;;;;;;5050951;28;20076;-78
2022/05/21 15:31:19;;;;;;;2.50;1.27;;;;;;;;;;5052167;28;20035;-78
2022/05/21 15:33:48;;;;;;;2.08;0.70;;;;;;;;;;5052471;28;20024;-79
2022/05/21 15:36:14;;;;;;;0.98;0.70;;;;;;;;;;5050881;28;20025;-80
2022/05/21 15:38:39;;;;;;;0.95;0.57;;;;;;;;;;5052616;28;20172;-80
2022/05/21 15:41:10;;;;;;;3.35;1.05;;;;;;;;;;5051705;28;20059;-79